createdAt,value
2018-05-29T04:02:57.563Z,556
2018-05-29T04:03:17.762Z,556
2018-05-29T04:03:37.985Z,560
2018-05-29T04:03:58.684Z,564
2018-05-29T04:04:18.894Z,568
2018-05-29T04:04:39.075Z,568
2018-05-29T04:04:59.265Z,572
2018-05-29T04:05:19.473Z,576
2018-05-29T04:05:39.689Z,576
2018-05-29T04:06:00.793Z,580
2018-05-29T04:18:17.451Z,668
2018-05-29T04:18:38.486Z,672
2018-05-29T04:18:59.562Z,672
2018-05-29T04:19:58.917Z,684
2018-05-29T04:20:19.220Z,684
2018-05-29T04:20:40.374Z,688
2018-05-29T04:21:00.554Z,688
2018-05-29T04:21:20.733Z,688
2018-05-29T04:21:40.972Z,688
2018-05-29T04:26:33.178Z,716
2018-05-29T04:26:53.391Z,712
2018-05-29T04:27:13.656Z,716
2018-05-29T04:29:59.104Z,728
2018-05-29T04:30:19.414Z,732
2018-05-29T04:32:20.796Z,736
2018-05-29T04:32:41.172Z,736
2018-05-29T04:35:32.830Z,748
2018-05-29T04:35:53.082Z,744
2018-05-29T04:38:59.029Z,760
2018-05-29T04:39:19.585Z,760
2018-05-29T04:42:08.232Z,780
2018-05-29T04:45:01.623Z,784
2018-05-29T04:45:21.854Z,784
2018-05-29T04:50:00.607Z,788
2018-05-29T04:50:20.825Z,792
2018-05-29T04:52:22.122Z,792
2018-05-29T04:52:42.279Z,796
2018-05-29T04:54:37.428Z,800
2018-05-29T04:57:32.665Z,812
2018-05-29T04:57:52.827Z,816
2018-05-29T04:59:46.276Z,824
2018-05-29T05:00:06.512Z,824
2018-05-29T05:03:07.151Z,828
2018-05-29T05:03:27.367Z,832
2018-05-29T05:05:20.575Z,836
2018-05-29T05:05:40.825Z,836
2018-05-29T05:08:43.257Z,836
2018-05-29T05:09:04.872Z,836
2018-05-29T05:10:54.940Z,840
2018-05-29T05:11:15.105Z,840
2018-05-29T05:14:15.820Z,852
2018-05-29T05:14:36.041Z,848
2018-05-29T05:17:32.306Z,856
2018-05-29T05:17:52.631Z,852
2018-05-29T05:19:45.917Z,856
2018-05-29T05:20:06.246Z,856
2018-05-29T05:21:40.057Z,864
2018-05-29T05:22:00.232Z,860
2018-05-29T05:24:13.103Z,864
2018-05-29T05:24:33.459Z,864
2018-05-29T05:24:53.730Z,864
2018-05-29T05:26:48.867Z,868
2018-05-29T05:27:09.066Z,868
2018-05-29T05:28:23.606Z,868
2018-05-29T05:30:27.424Z,872
2018-05-29T05:30:47.604Z,872
2018-05-29T05:31:54.112Z,876
2018-05-29T05:32:56.088Z,876
2018-05-29T05:33:56.286Z,876
2018-05-29T05:34:17.206Z,884
2018-05-29T05:34:37.375Z,880
2018-05-29T05:34:57.610Z,880
2018-05-29T05:35:17.827Z,884
2018-05-29T05:35:37.950Z,884
2018-05-29T05:35:58.159Z,884
2018-05-29T05:36:58.687Z,880
2018-05-29T05:37:18.856Z,880
2018-05-29T05:38:38.753Z,876
2018-05-29T05:38:58.939Z,876
2018-05-29T05:39:20.051Z,876
2018-05-29T05:39:40.225Z,876
2018-05-29T05:40:00.475Z,876
2018-05-29T05:40:20.692Z,876
2018-05-29T05:40:40.873Z,876
2018-05-29T05:41:49.904Z,876
2018-05-29T05:42:10.225Z,880
2018-05-29T05:42:30.891Z,880
2018-05-29T05:42:51.049Z,876
2018-05-29T05:43:11.306Z,876
2018-05-29T05:43:31.515Z,876
2018-05-29T05:43:52.229Z,876
2018-05-29T05:44:12.434Z,876
2018-05-29T05:44:32.651Z,876
2018-05-29T05:44:52.911Z,880
2018-05-29T05:45:13.168Z,876
2018-05-29T05:45:33.392Z,876
2018-05-29T05:45:53.595Z,876
2018-05-29T05:46:13.999Z,876
2018-05-29T05:46:34.254Z,876
2018-05-29T05:46:55.083Z,876
2018-05-29T05:47:15.268Z,876
2018-05-29T05:47:35.537Z,880
2018-05-29T05:47:55.701Z,876
2018-05-29T05:48:15.864Z,876
2018-05-29T05:48:36.866Z,876
2018-05-29T05:48:58.752Z,876
2018-05-29T05:49:19.846Z,876
2018-05-29T05:49:40.105Z,876
2018-05-29T05:50:00.295Z,876
2018-05-29T05:50:21.327Z,872
2018-05-29T05:50:41.710Z,876
2018-05-29T05:51:01.983Z,876
2018-05-29T05:51:22.136Z,876
2018-05-29T05:51:42.349Z,876
2018-05-29T05:52:03.330Z,876
2018-05-29T05:52:23.530Z,876
2018-05-29T05:52:43.802Z,876
2018-05-29T05:53:04.738Z,880
2018-05-29T05:53:24.858Z,876
2018-05-29T05:53:45.039Z,876
2018-05-29T05:54:05.235Z,880
2018-05-29T05:54:26.257Z,876
2018-05-29T05:54:46.419Z,876
2018-05-29T05:55:06.616Z,880
2018-05-29T05:55:26.794Z,876
2018-05-29T05:55:46.990Z,876
2018-05-29T05:56:07.250Z,876
2018-05-29T05:56:27.408Z,876
2018-05-29T05:56:48.350Z,884
2018-05-29T05:57:08.525Z,884
2018-05-29T05:57:29.290Z,880
2018-05-29T05:57:49.530Z,884
2018-05-29T05:58:09.710Z,884
2018-05-29T05:58:29.869Z,884
2018-05-29T05:58:50.198Z,884
2018-05-29T05:59:10.400Z,888
2018-05-29T05:59:31.317Z,888
2018-05-29T05:59:51.710Z,892
2018-05-29T06:00:11.956Z,888
2018-05-29T06:00:32.250Z,892
2018-05-29T06:00:52.578Z,896
2018-05-29T06:01:13.591Z,892
2018-05-29T06:01:33.732Z,896
2018-05-29T06:01:53.959Z,896
2018-05-29T06:02:14.102Z,892
2018-05-29T06:02:34.363Z,896
2018-05-29T06:02:54.550Z,896
2018-05-29T06:03:14.789Z,900
2018-05-29T06:03:34.970Z,900
2018-05-29T06:03:55.153Z,900
2018-05-29T06:04:16.293Z,900
2018-05-29T06:04:36.446Z,900
2018-05-29T06:04:56.611Z,900
2018-05-29T06:05:16.861Z,904
2018-05-29T06:05:38.082Z,904
2018-05-29T06:05:58.311Z,900
2018-05-29T06:06:18.500Z,904
2018-05-29T06:06:39.293Z,904
2018-05-29T06:06:59.503Z,904
2018-05-29T06:07:20.593Z,908
2018-05-29T06:07:40.806Z,908
2018-05-29T06:08:00.980Z,904
2018-05-29T06:08:21.139Z,904
2018-05-29T06:08:41.308Z,904
2018-05-29T06:09:01.484Z,904
2018-05-29T06:09:21.666Z,904
2018-05-29T06:09:41.856Z,904
2018-05-29T06:10:02.103Z,904
2018-05-29T06:10:22.287Z,900
2018-05-29T06:10:42.567Z,904
2018-05-29T06:11:02.847Z,908
2018-05-29T06:11:23.598Z,904
2018-05-29T06:11:43.770Z,904
2018-05-29T06:12:03.940Z,904
2018-05-29T06:12:24.094Z,908
2018-05-29T06:12:44.347Z,908
2018-05-29T06:13:04.518Z,908
2018-05-29T06:13:24.702Z,912
2018-05-29T06:13:44.985Z,908
2018-05-29T06:14:05.215Z,912
2018-05-29T06:14:25.410Z,908
2018-05-29T06:14:45.579Z,912
2018-05-29T06:15:05.751Z,912
2018-05-29T06:15:25.908Z,912
2018-05-29T06:15:46.107Z,908
2018-05-29T06:16:06.275Z,916
2018-05-29T06:16:26.501Z,912
2018-05-29T06:16:47.249Z,916
2018-05-29T06:17:07.420Z,916
2018-05-29T06:17:27.598Z,912
2018-05-29T06:17:47.742Z,912
2018-05-29T06:18:07.904Z,916
2018-05-29T06:18:28.167Z,916
2018-05-29T06:18:48.337Z,916
2018-05-29T06:19:08.546Z,912
2018-05-29T06:19:28.705Z,916
2018-05-29T06:19:48.868Z,916
2018-05-29T06:20:09.044Z,916
2018-05-29T06:20:29.178Z,916
2018-05-29T06:20:49.346Z,916
2018-05-29T06:21:09.507Z,916
2018-05-29T06:21:29.675Z,916
2018-05-29T06:21:50.664Z,916
2018-05-29T06:22:10.812Z,916
2018-05-29T06:22:30.968Z,916
2018-05-29T06:22:51.183Z,916
2018-05-29T06:23:11.485Z,916
2018-05-29T06:23:31.664Z,912
2018-05-29T06:23:51.977Z,916
2018-05-29T06:24:12.209Z,916
2018-05-29T06:24:32.375Z,912
2018-05-29T06:24:52.546Z,916
2018-05-29T06:25:12.708Z,916
2018-05-29T06:25:32.980Z,916
2018-05-29T06:25:53.142Z,916
2018-05-29T06:26:13.321Z,916
2018-05-29T06:26:33.579Z,916
2018-05-29T06:26:53.756Z,916
2018-05-29T06:27:13.950Z,916
2018-05-29T06:27:34.859Z,916
2018-05-29T06:27:55.017Z,916
2018-05-29T06:28:15.177Z,916
2018-05-29T06:28:36.187Z,916
2018-05-29T06:28:56.412Z,920
2018-05-29T06:29:16.574Z,920
2018-05-29T06:29:36.814Z,920
2018-05-29T06:29:56.972Z,924
2018-05-29T06:30:17.169Z,924
2018-05-29T06:30:37.396Z,920
2018-05-29T06:30:57.633Z,920
2018-05-29T06:31:17.869Z,924
2018-05-29T06:31:38.111Z,924
2018-05-29T06:31:58.378Z,924
2018-05-29T06:32:18.577Z,928
2018-05-29T06:32:38.741Z,928
2018-05-29T06:32:58.957Z,928
2018-05-29T06:33:19.136Z,932
2018-05-29T06:33:39.334Z,928
2018-05-29T06:33:59.474Z,928
2018-05-29T06:34:20.368Z,928
2018-05-29T06:34:41.287Z,932
2018-05-29T06:35:01.467Z,932
2018-05-29T06:35:24.338Z,928
2018-05-29T06:35:44.655Z,928
2018-05-29T06:36:04.861Z,932
2018-05-29T06:36:25.040Z,932
2018-05-29T06:36:46.247Z,932
2018-05-29T06:37:06.590Z,936
2018-05-29T06:37:26.746Z,932
2018-05-29T06:37:47.812Z,936
2018-05-29T06:38:08.578Z,936
2018-05-29T06:38:28.739Z,936
2018-05-29T06:38:49.724Z,936
2018-05-29T06:39:10.689Z,936
2018-05-29T06:39:30.967Z,936
2018-05-29T06:39:51.464Z,936
2018-05-29T06:40:11.833Z,940
2018-05-29T06:40:32.297Z,940
2018-05-29T06:40:52.570Z,940
2018-05-29T06:41:13.276Z,940
2018-05-29T06:41:33.461Z,940
2018-05-29T06:41:53.679Z,944
2018-05-29T06:42:13.930Z,944
2018-05-29T06:42:34.329Z,940
2018-05-29T06:42:54.834Z,940
2018-05-29T06:43:15.166Z,940
2018-05-29T06:43:36.177Z,944
2018-05-29T06:43:56.458Z,948
2018-05-29T06:44:17.293Z,944
2018-05-29T06:44:37.476Z,948
2018-05-29T06:44:57.774Z,944
2018-05-29T06:45:17.928Z,948
2018-05-29T06:45:38.173Z,952
2018-05-29T06:45:59.317Z,948
2018-05-29T06:46:20.298Z,948
2018-05-29T06:46:40.465Z,948
2018-05-29T06:47:01.182Z,948
2018-05-29T06:47:21.351Z,944
2018-05-29T06:47:41.551Z,944
2018-05-29T06:48:01.771Z,944
2018-05-29T06:48:21.937Z,944
2018-05-29T06:48:42.111Z,948
2018-05-29T06:49:02.306Z,948
2018-05-29T06:49:22.577Z,948
2018-05-29T06:49:42.888Z,944
2018-05-29T06:50:03.147Z,948
2018-05-29T06:50:23.374Z,948
2018-05-29T06:50:43.587Z,948
2018-05-29T06:51:03.832Z,948
2018-05-29T06:51:24.785Z,948
2018-05-29T06:51:45.002Z,948
2018-05-29T06:52:05.221Z,948
2018-05-29T06:52:26.369Z,952
2018-05-29T06:52:46.646Z,952
2018-05-29T06:53:06.957Z,956
2018-05-29T06:53:27.202Z,956
2018-05-29T06:53:47.413Z,956
2018-05-29T06:54:08.101Z,956
2018-05-29T06:54:28.246Z,952
2018-05-29T06:54:48.416Z,952
2018-05-29T06:55:08.600Z,952
2018-05-29T06:55:29.725Z,952
2018-05-29T06:55:49.912Z,948
2018-05-29T06:56:10.906Z,956
2018-05-29T06:56:31.169Z,952
2018-05-29T06:56:51.313Z,952
2018-05-29T06:57:12.818Z,952
2018-05-29T06:57:33.022Z,956
2018-05-29T06:57:53.327Z,956
2018-05-29T06:58:14.256Z,956
2018-05-29T06:58:34.446Z,952
2018-05-29T06:58:54.653Z,956
2018-05-29T06:59:15.315Z,956
2018-05-29T06:59:35.550Z,956
2018-05-29T06:59:56.339Z,956
2018-05-29T07:00:16.511Z,952
2018-05-29T07:00:36.683Z,952
2018-05-29T07:00:56.841Z,956
2018-05-29T07:01:17.086Z,956
2018-05-29T07:01:37.374Z,956
2018-05-29T07:01:57.630Z,956
2018-05-29T07:02:17.939Z,956
2018-05-29T07:02:38.699Z,952
2018-05-29T07:02:58.869Z,956
2018-05-29T07:03:19.077Z,952
2018-05-29T07:03:39.366Z,952
2018-05-29T07:03:59.618Z,960
2018-05-29T07:04:19.932Z,956
2018-05-29T07:04:40.207Z,952
2018-05-29T07:05:00.483Z,952
2018-05-29T07:05:20.825Z,952
2018-05-29T07:05:41.067Z,960
2018-05-29T07:06:02.767Z,956
2018-05-29T07:06:22.941Z,948
2018-05-29T07:06:43.706Z,956
2018-05-29T07:07:04.828Z,956
2018-05-29T07:07:25.858Z,952
2018-05-29T07:07:46.117Z,952
2018-05-29T07:08:06.376Z,952
2018-05-29T07:08:26.654Z,952
2018-05-29T07:08:47.009Z,956
2018-05-29T07:09:07.272Z,952
2018-05-29T07:09:27.518Z,956
2018-05-29T07:09:48.769Z,956
2018-05-29T07:10:08.960Z,952
2018-05-29T07:10:29.155Z,952
2018-05-29T07:10:49.856Z,952
2018-05-29T07:11:10.099Z,952
2018-05-29T07:11:30.350Z,956
2018-05-29T07:11:50.512Z,956
2018-05-29T07:12:10.802Z,956
2018-05-29T07:12:30.950Z,956
2018-05-29T07:12:51.139Z,956
2018-05-29T07:13:11.571Z,956
2018-05-29T07:13:32.705Z,952
2018-05-29T07:13:53.460Z,952
2018-05-29T07:14:13.844Z,952
2018-05-29T07:14:34.248Z,952
2018-05-29T07:14:54.662Z,952
2018-05-29T07:15:16.865Z,952
2018-05-29T07:15:37.134Z,952
2018-05-29T07:15:57.503Z,956
2018-05-29T07:16:17.729Z,956
2018-05-29T07:16:38.032Z,956
2018-05-29T07:16:58.441Z,956
2018-05-29T07:17:18.716Z,956
2018-05-29T07:17:39.942Z,960
2018-05-29T07:18:00.338Z,960
2018-05-29T07:18:20.633Z,960
2018-05-29T07:18:40.889Z,964
2018-05-29T07:19:01.062Z,968
2018-05-29T07:19:21.263Z,968
2018-05-29T07:19:41.445Z,964
2018-05-29T07:20:02.363Z,968
2018-05-29T07:20:22.699Z,964
2018-05-29T07:20:42.858Z,968
2018-05-29T07:21:03.004Z,964
2018-05-29T07:21:23.192Z,964
2018-05-29T07:21:44.826Z,968
2018-05-29T07:22:04.988Z,968
2018-05-29T07:22:25.156Z,964
2018-05-29T07:22:45.932Z,964
2018-05-29T07:23:06.072Z,964
2018-05-29T07:23:26.231Z,968
2018-05-29T07:23:46.410Z,968
2018-05-29T07:24:06.578Z,968
2018-05-29T07:24:26.830Z,964
2018-05-29T07:24:47.074Z,968
2018-05-29T07:25:07.557Z,964
2018-05-29T07:25:27.907Z,964
2018-05-29T07:25:48.355Z,964
2018-05-29T07:26:08.570Z,960
2018-05-29T07:26:28.850Z,960
2018-05-29T07:26:49.668Z,964
2018-05-29T07:27:10.069Z,964
2018-05-29T07:27:30.347Z,964
2018-05-29T07:27:50.515Z,964
2018-05-29T07:28:10.690Z,964
2018-05-29T07:28:31.044Z,968
2018-05-29T07:28:51.225Z,968
2018-05-29T07:29:11.429Z,968
2018-05-29T07:29:31.682Z,964
2018-05-29T07:29:51.895Z,964
2018-05-29T07:30:12.105Z,964
2018-05-29T07:30:32.373Z,964
2018-05-29T07:30:53.340Z,964
2018-05-29T07:31:13.706Z,968
2018-05-29T07:31:33.993Z,968
2018-05-29T07:31:54.193Z,964
2018-05-29T07:32:15.338Z,964
2018-05-29T07:32:35.502Z,964
2018-05-29T07:32:55.688Z,964
2018-05-29T07:33:15.925Z,964
2018-05-29T07:33:36.150Z,964
2018-05-29T07:33:56.326Z,960
2018-05-29T07:34:17.364Z,964
2018-05-29T07:34:37.586Z,964
2018-05-29T07:34:57.773Z,964
2018-05-29T07:35:18.002Z,964
2018-05-29T07:35:38.170Z,960
2018-05-29T07:35:58.518Z,960
2018-05-29T07:36:18.756Z,964
2018-05-29T07:36:39.035Z,964
2018-05-29T07:36:59.239Z,964
2018-05-29T07:37:19.498Z,964
2018-05-29T07:37:39.700Z,964
2018-05-29T07:38:00.041Z,960
2018-05-29T07:38:20.485Z,964
2018-05-29T07:38:40.885Z,964
2018-05-29T07:39:02.016Z,964
2018-05-29T07:39:22.400Z,964
2018-05-29T07:39:42.803Z,968
2018-05-29T07:40:03.852Z,964
2018-05-29T07:40:24.128Z,968
2018-05-29T07:40:44.441Z,964
2018-05-29T07:41:04.751Z,968
2018-05-29T07:41:24.916Z,968
2018-05-29T07:41:45.284Z,968
2018-05-29T07:42:05.598Z,972
2018-05-29T07:42:25.840Z,972
2018-05-29T07:42:46.150Z,968
2018-05-29T07:43:06.472Z,968
2018-05-29T07:43:27.916Z,972
2018-05-29T07:43:48.210Z,968
2018-05-29T07:44:08.776Z,968
2018-05-29T07:44:29.058Z,968
2018-05-29T07:44:50.474Z,976
2018-05-29T07:45:11.031Z,976
2018-05-29T07:45:31.399Z,976
2018-05-29T07:45:51.706Z,972
2018-05-29T07:46:12.831Z,972
2018-05-29T07:46:33.089Z,972
2018-05-29T07:46:53.360Z,972
2018-05-29T07:47:14.486Z,972
2018-05-29T07:47:34.826Z,968
2018-05-29T07:47:55.896Z,976
2018-05-29T07:48:16.170Z,972
2018-05-29T07:48:36.474Z,976
2018-05-29T07:48:56.878Z,976
2018-05-29T07:49:17.251Z,980
2018-05-29T07:49:37.530Z,980
2018-05-29T07:49:57.938Z,980
2018-05-29T07:50:18.187Z,980
2018-05-29T07:50:38.502Z,984
2018-05-29T07:50:58.715Z,980
2018-05-29T07:51:18.892Z,984
2018-05-29T07:51:39.186Z,980
2018-05-29T07:51:59.533Z,980
2018-05-29T07:52:19.919Z,984
2018-05-29T07:52:40.212Z,984
2018-05-29T07:53:01.541Z,988
2018-05-29T07:53:22.069Z,984
2018-05-29T07:53:42.466Z,988
2018-05-29T07:54:02.768Z,988
2018-05-29T07:54:23.903Z,988
2018-05-29T07:54:44.294Z,988
2018-05-29T07:55:04.803Z,988
2018-05-29T07:55:25.144Z,988
2018-05-29T07:55:45.700Z,988
2018-05-29T07:56:06.097Z,992
2018-05-29T07:56:26.618Z,992
2018-05-29T07:56:47.161Z,992
2018-05-29T07:57:07.548Z,988
2018-05-29T07:57:27.995Z,992
2018-05-29T07:57:48.461Z,996
2018-05-29T07:58:08.786Z,996
2018-05-29T07:58:29.189Z,992
2018-05-29T07:58:49.746Z,996
2018-05-29T07:59:10.352Z,996
2018-05-29T07:59:30.834Z,996
2018-05-29T07:59:51.344Z,988
2018-05-29T08:00:12.541Z,1000
2018-05-29T08:00:32.950Z,1000
2018-05-29T08:00:53.209Z,996
2018-05-29T08:01:13.587Z,1004
2018-05-29T08:01:34.967Z,1008
2018-05-29T08:01:55.275Z,1008
2018-05-29T08:02:15.515Z,1008
2018-05-29T08:02:35.992Z,1004
2018-05-29T08:02:56.957Z,1004
2018-05-29T08:03:17.211Z,1000
2018-05-29T08:03:37.649Z,1004
2018-05-29T08:03:58.094Z,1004
2018-05-29T08:04:18.340Z,1008
2018-05-29T08:04:38.605Z,1004
2018-05-29T08:04:58.901Z,1012
2018-05-29T08:05:19.277Z,1008
2018-05-29T08:05:40.473Z,1008
2018-05-29T08:06:00.744Z,1000
2018-05-29T08:06:21.013Z,1004
2018-05-29T08:06:41.391Z,1004
2018-05-29T08:07:01.638Z,1000
2018-05-29T08:07:22.132Z,1004
2018-05-29T08:07:42.334Z,1004
2018-05-29T08:08:02.657Z,1004
2018-05-29T08:08:22.942Z,1008
2018-05-29T08:08:43.787Z,1008
2018-05-29T08:09:03.935Z,1012
2018-05-29T08:09:24.895Z,1012
2018-05-29T08:09:45.109Z,1004
2018-05-29T08:10:05.291Z,1012
2018-05-29T08:10:25.515Z,1012
2018-05-29T08:10:45.729Z,1008
2018-05-29T08:11:06.865Z,1008
2018-05-29T08:11:27.178Z,1008
2018-05-29T08:11:47.914Z,1012
2018-05-29T08:12:08.202Z,1008
2018-05-29T08:12:28.585Z,1008
2018-05-29T08:12:48.829Z,1008
2018-05-29T08:13:09.266Z,1008
2018-05-29T08:13:29.729Z,1008
2018-05-29T08:13:51.558Z,1008
2018-05-29T08:14:11.795Z,1004
2018-05-29T08:14:32.083Z,1000
2018-05-29T08:14:52.518Z,1008
2018-05-29T08:15:12.929Z,1008
2018-05-29T08:15:33.378Z,1008
2018-05-29T08:15:53.776Z,1016
2018-05-29T08:16:14.128Z,1004
2018-05-29T08:16:34.575Z,1012
2018-05-29T08:16:54.826Z,1008
2018-05-29T08:17:15.031Z,1012
2018-05-29T08:17:35.374Z,1016
2018-05-29T08:17:55.661Z,1016
2018-05-29T08:18:18.152Z,1016
2018-05-29T08:18:38.635Z,1016
2018-05-29T08:18:58.797Z,1012
2018-05-29T08:19:19.080Z,1012
2018-05-29T08:19:39.344Z,1012
2018-05-29T08:20:00.700Z,1004
2018-05-29T08:20:21.338Z,1004
2018-05-29T08:20:41.786Z,1000
2018-05-29T08:21:02.247Z,1004
2018-05-29T08:21:22.501Z,1000
2018-05-29T08:21:42.801Z,1004
2018-05-29T08:22:03.156Z,1004
2018-05-29T08:22:23.324Z,1000
2018-05-29T08:22:43.527Z,1000
2018-05-29T08:23:03.977Z,1000
2018-05-29T08:23:24.288Z,1004
2018-05-29T08:23:44.584Z,1008
2018-05-29T08:24:05.837Z,1008
2018-05-29T08:24:27.012Z,1008
2018-05-29T08:24:48.010Z,1008
2018-05-29T08:25:08.392Z,1004
2018-05-29T08:25:28.674Z,1000
2018-05-29T08:25:48.972Z,1000
2018-05-29T08:26:09.287Z,1000
2018-05-29T08:26:29.744Z,1008
2018-05-29T08:26:50.023Z,1008
2018-05-29T08:27:10.921Z,1008
2018-05-29T08:27:32.312Z,1008
2018-05-29T08:27:52.513Z,1012
2018-05-29T08:28:13.384Z,1008
2018-05-29T08:28:33.589Z,1004
2018-05-29T08:28:54.014Z,1008
2018-05-29T08:29:14.324Z,1008
2018-05-29T08:29:34.578Z,1008
2018-05-29T08:29:54.882Z,1004
2018-05-29T08:30:15.140Z,1004
2018-05-29T08:30:35.387Z,1000
2018-05-29T08:30:55.707Z,1000
2018-05-29T08:31:15.925Z,1004
2018-05-29T08:31:36.289Z,1004
2018-05-29T08:31:56.519Z,1000
2018-05-29T08:32:16.969Z,1004
2018-05-29T08:32:37.419Z,1000
2018-05-29T08:32:58.144Z,1000
2018-05-29T08:33:18.357Z,1000
2018-05-29T08:33:39.437Z,1004
2018-05-29T08:34:00.346Z,1004
2018-05-29T08:34:20.733Z,1008
2018-05-29T08:34:41.774Z,1012
2018-05-29T08:35:02.056Z,1012
2018-05-29T08:35:22.325Z,1012
2018-05-29T08:35:42.630Z,1016
2018-05-29T08:36:02.953Z,1012
2018-05-29T08:36:23.225Z,1008
2018-05-29T08:36:43.598Z,1008
2018-05-29T08:37:03.965Z,1008
2018-05-29T08:37:24.271Z,1008
2018-05-29T08:37:45.381Z,1008
2018-05-29T08:38:05.587Z,1004
2018-05-29T08:38:25.748Z,1004
2018-05-29T08:38:45.918Z,1004
2018-05-29T08:39:06.706Z,1008
2018-05-29T08:39:27.574Z,1000
2018-05-29T08:39:47.840Z,1000
2018-05-29T08:40:08.002Z,1004
2018-05-29T08:40:28.218Z,1004
2018-05-29T08:40:48.451Z,1004
2018-05-29T08:41:08.612Z,1008
2018-05-29T08:41:29.008Z,1008
2018-05-29T08:41:49.564Z,1012
2018-05-29T08:42:09.851Z,1012
2018-05-29T08:42:30.128Z,1012
2018-05-29T08:42:50.408Z,1008
2018-05-29T08:43:10.895Z,1000
2018-05-29T08:43:31.161Z,996
2018-05-29T08:43:51.547Z,992
2018-05-29T08:44:12.487Z,996
2018-05-29T08:44:34.037Z,1000
2018-05-29T08:44:54.322Z,1008
2018-05-29T08:45:14.630Z,1008
2018-05-29T08:45:34.839Z,1000
2018-05-29T08:45:55.022Z,1000
2018-05-29T08:46:15.408Z,1000
2018-05-29T08:46:35.664Z,1004
2018-05-29T08:46:56.791Z,1004
2018-05-29T08:47:17.108Z,1004
2018-05-29T08:47:37.424Z,1004
2018-05-29T08:47:57.673Z,1004
2018-05-29T08:48:18.922Z,1008
2018-05-29T08:48:39.754Z,1008
2018-05-29T08:49:00.161Z,1008
2018-05-29T08:49:20.454Z,1012
2018-05-29T08:49:40.694Z,1004
2018-05-29T08:50:00.930Z,992
2018-05-29T08:50:21.149Z,996
2018-05-29T08:50:41.418Z,996
2018-05-29T08:51:01.814Z,1048
2018-05-29T08:51:22.111Z,1172
2018-05-29T08:51:42.451Z,1168
2018-05-29T08:52:02.934Z,1060
2018-05-29T08:52:23.241Z,1016
2018-05-29T08:52:43.475Z,1016
2018-05-29T08:53:03.796Z,1008
2018-05-29T08:53:24.120Z,1016
2018-05-29T08:53:44.447Z,1016
2018-05-29T08:54:04.856Z,1020
2018-05-29T08:54:25.219Z,1016
2018-05-29T08:54:46.192Z,1020
2018-05-29T08:55:06.524Z,1016
2018-05-29T08:55:26.719Z,1016
2018-05-29T08:55:47.712Z,1016
2018-05-29T08:56:07.977Z,1012
2018-05-29T08:56:28.171Z,1008
2018-05-29T08:56:48.631Z,1008
2018-05-29T08:57:08.994Z,1008
2018-05-29T08:57:29.351Z,1012
2018-05-29T08:57:49.692Z,1008
2018-05-29T08:58:10.483Z,1012
2018-05-29T08:58:30.834Z,1008
2018-05-29T08:58:51.143Z,1008
2018-05-29T08:59:11.416Z,1016
2018-05-29T08:59:31.670Z,1012
2018-05-29T08:59:52.053Z,1012
2018-05-29T09:00:12.435Z,1016
2018-05-29T09:00:32.885Z,1016
2018-05-29T09:00:53.188Z,1012
2018-05-29T09:01:13.419Z,1004
2018-05-29T09:01:33.589Z,1008
2018-05-29T09:01:54.475Z,1012
2018-05-29T09:02:14.751Z,1016
2018-05-29T09:02:35.890Z,1012
2018-05-29T09:02:56.920Z,1000
2018-05-29T09:03:17.146Z,1004
2018-05-29T09:03:37.540Z,1004
2018-05-29T09:03:57.814Z,1008
2018-05-29T09:04:18.043Z,1008
2018-05-29T09:04:38.840Z,1008
2018-05-29T09:04:59.112Z,1016
2018-05-29T09:05:19.295Z,1016
2018-05-29T09:05:39.695Z,1020
2018-05-29T09:06:00.062Z,1028
2018-05-29T09:06:20.337Z,1052
2018-05-29T09:06:40.621Z,1092
2018-05-29T09:07:00.870Z,1076
2018-05-29T09:07:21.185Z,1044
2018-05-29T09:07:41.531Z,1024
2018-05-29T09:08:01.838Z,1032
2018-05-29T09:08:22.207Z,1036
2018-05-29T09:08:42.527Z,1036
2018-05-29T09:09:02.822Z,1036
2018-05-29T09:09:23.083Z,1032
2018-05-29T09:09:44.032Z,1028
2018-05-29T09:10:04.964Z,1028
2018-05-29T09:10:25.277Z,1036
2018-05-29T09:10:45.573Z,1044
2018-05-29T09:11:06.497Z,1040
2018-05-29T09:11:26.791Z,1032
2018-05-29T09:11:47.207Z,1032
2018-05-29T09:12:07.449Z,1032
2018-05-29T09:12:28.564Z,1028
2018-05-29T09:12:48.803Z,1020
2018-05-29T09:13:09.067Z,1020
2018-05-29T09:13:29.295Z,1016
2018-05-29T09:13:49.528Z,1020
2018-05-29T09:14:09.733Z,1024
2018-05-29T09:14:29.977Z,1032
2018-05-29T09:14:50.440Z,1100
2018-05-29T09:15:10.861Z,1272
2018-05-29T09:15:31.377Z,1540
2018-05-29T09:15:51.639Z,1600
2018-05-29T09:16:11.959Z,1460
2018-05-29T09:16:32.384Z,1316
2018-05-29T09:16:52.645Z,1200
2018-05-29T09:17:13.544Z,1112
2018-05-29T09:17:33.891Z,1060
2018-05-29T09:17:54.227Z,1040
2018-05-29T09:18:14.511Z,1036
2018-05-29T09:18:34.990Z,1032
2018-05-29T09:18:55.974Z,1036
2018-05-29T09:19:16.854Z,1044
2018-05-29T09:19:37.147Z,1056
2018-05-29T09:19:58.071Z,1036
2018-05-29T09:20:18.424Z,1000
2018-05-29T09:20:38.695Z,988
2018-05-29T09:20:59.034Z,1000
2018-05-29T09:21:19.343Z,1004
2018-05-29T09:21:39.761Z,1008
2018-05-29T09:22:00.105Z,1004
2018-05-29T09:22:20.535Z,1000
2018-05-29T09:22:41.473Z,996
2018-05-29T09:23:01.995Z,988
2018-05-29T09:23:22.474Z,984
2018-05-29T09:23:42.932Z,976
2018-05-29T09:24:03.487Z,976
2018-05-29T09:24:24.562Z,980
2018-05-29T09:24:44.907Z,972
2018-05-29T09:25:05.339Z,976
2018-05-29T09:25:25.947Z,976
2018-05-29T09:25:46.373Z,980
2018-05-29T09:26:07.609Z,980
2018-05-29T09:26:28.474Z,980
2018-05-29T09:26:49.555Z,980
2018-05-29T09:27:10.014Z,980
2018-05-29T09:27:30.357Z,988
2018-05-29T09:27:50.782Z,980
2018-05-29T09:28:11.049Z,984
2018-05-29T09:28:31.321Z,976
2018-05-29T09:28:51.639Z,976
2018-05-29T09:29:12.919Z,976
2018-05-29T09:29:33.245Z,980
2018-05-29T09:29:53.679Z,976
2018-05-29T09:30:14.202Z,972
2018-05-29T09:30:34.547Z,968
2018-05-29T09:30:54.920Z,968
2018-05-29T09:31:15.509Z,972
2018-05-29T09:31:35.922Z,980
2018-05-29T09:31:56.202Z,984
2018-05-29T09:32:16.541Z,988
2018-05-29T09:32:36.908Z,988
2018-05-29T09:32:58.010Z,988
2018-05-29T09:33:18.348Z,988
2018-05-29T09:33:38.722Z,980
2018-05-29T09:33:59.095Z,976
2018-05-29T09:34:19.313Z,976
2018-05-29T09:34:39.580Z,980
2018-05-29T09:34:59.821Z,980
2018-05-29T09:35:20.169Z,984
2018-05-29T09:35:40.542Z,972
2018-05-29T09:36:02.452Z,964
2018-05-29T09:36:23.557Z,964
2018-05-29T09:36:43.946Z,972
2018-05-29T09:37:04.168Z,960
2018-05-29T09:37:24.442Z,964
2018-05-29T09:37:45.503Z,960
2018-05-29T09:38:05.666Z,964
2018-05-29T09:38:25.948Z,964
2018-05-29T09:38:46.249Z,968
2018-05-29T09:39:07.294Z,968
2018-05-29T09:39:27.467Z,964
2018-05-29T09:39:47.658Z,968
2018-05-29T09:40:07.871Z,972
2018-05-29T09:40:28.079Z,976
2018-05-29T09:40:49.002Z,976
2018-05-29T09:41:09.271Z,980
2018-05-29T09:41:29.678Z,976
2018-05-29T09:41:49.963Z,980
2018-05-29T09:42:10.968Z,980
2018-05-29T09:42:31.349Z,984
2018-05-29T09:42:51.610Z,984
2018-05-29T09:43:11.816Z,988
2018-05-29T09:43:32.041Z,996
2018-05-29T09:43:52.972Z,1008
2018-05-29T09:44:13.977Z,1028
2018-05-29T09:44:34.406Z,1028
2018-05-29T09:44:55.488Z,1024
2018-05-29T09:45:16.396Z,1028
2018-05-29T09:45:36.711Z,1028
2018-05-29T09:45:57.116Z,1036
2018-05-29T09:46:17.597Z,1036
2018-05-29T09:46:38.024Z,1024
2018-05-29T09:46:58.226Z,1016
2018-05-29T09:47:18.472Z,1016
2018-05-29T09:47:38.680Z,1016
2018-05-29T09:47:59.126Z,1024
2018-05-29T09:48:19.439Z,1044
2018-05-29T09:48:40.150Z,1068
2018-05-29T09:49:00.552Z,1064
2018-05-29T09:49:20.921Z,1044
2018-05-29T09:49:41.310Z,1000
2018-05-29T09:50:01.619Z,1004
2018-05-29T09:50:21.961Z,1000
2018-05-29T09:50:42.201Z,1008
2018-05-29T09:51:02.502Z,1064
2018-05-29T09:51:22.822Z,1152